Tallassee, Alabama
Current Conditions -  °F | °C
As of 12:35 AM on Saturday 20 Dec 2014 (Local Time) from KALX Reporting Station
Light Rain Light Rain  
Wind Chill: 44°   Ceiling: 500
Heat Index: 44°   Visibility: 7mi
Dew Point: 40°   Wind: 0mph
Humidity: 86%   Direction: NA
Pressure: 30.13"   Gusts: NA
Location:  32.54°N, 85.89°W
Report Text: KALX 200635Z AUTO 00000KT 7SM -RA BKN005 BKN011 OVC050 07/05 A3013 RMK AO2 P0004 T00670045
Loading
Personal Weather Stations






























Interactive Weather Map New forecast layout! Learn more

10-Day Weather Forecast

Advertisements
Track Severe Weather on mobile